sensor_id;sensor_type;location;lat;lon;timestamp;pressure;altitude;pressure_sealevel;temperature;humidity
12991;BME280;6560;57.692;11.958;2023-06-22T00:02:17;101327.28;;;25.42;100.00
12991;BME280;6560;57.692;11.958;2023-06-22T00:04:43;101315.56;;;24.73;100.00
12991;BME280;6560;57.692;11.958;2023-06-22T00:07:12;101336.03;;;24.65;100.00
12991;BME280;6560;57.692;11.958;2023-06-22T00:09:37;101299.03;;;24.59;100.00
12991;BME280;6560;57.692;11.958;2023-06-22T00:12:03;101334.63;;;24.79;100.00
12991;BME280;6560;57.692;11.958;2023-06-22T00:14:29;101287.56;;;24.68;100.00
12991;BME280;6560;57.692;11.958;2023-06-22T00:16:55;101315.06;;;24.23;100.00
12991;BME280;6560;57.692;11.958;2023-06-22T00:19:22;101342.69;;;24.46;100.00
12991;BME280;6560;57.692;11.958;2023-06-22T00:21:50;101338.34;;;24.51;100.00
12991;BME280;6560;57.692;11.958;2023-06-22T00:24:21;101329.84;;;25.01;100.00
12991;BME280;6560;57.692;11.958;2023-06-22T00:26:49;101330.97;;;25.10;100.00
12991;BME280;6560;57.692;11.958;2023-06-22T00:29:15;101310.28;;;24.77;100.00
12991;BME280;6560;57.692;11.958;2023-06-22T00:31:42;101313.41;;;24.91;100.00
12991;BME280;6560;57.692;11.958;2023-06-22T00:34:10;101321.56;;;24.62;100.00
12991;BME280;6560;57.692;11.958;2023-06-22T00:36:37;101296.38;;;24.60;100.00
12991;BME280;6560;57.692;11.958;2023-06-22T00:39:02;101337.59;;;24.56;100.00
12991;BME280;6560;57.692;11.958;2023-06-22T00:41:28;101311.19;;;24.45;100.00
12991;BME280;6560;57.692;11.958;2023-06-22T00:43:54;101332.13;;;24.53;100.00
12991;BME280;6560;57.692;11.958;2023-06-22T00:46:21;101326.97;;;24.62;100.00
12991;BME280;6560;57.692;11.958;2023-06-22T00:48:50;101340.06;;;24.49;100.00
12991;BME280;6560;57.692;11.958;2023-06-22T00:51:17;101335.16;;;24.66;100.00
12991;BME280;6560;57.692;11.958;2023-06-22T00:53:50;101332.69;;;24.75;100.00
12991;BME280;6560;57.692;11.958;2023-06-22T00:56:16;101323.25;;;24.57;100.00
12991;BME280;6560;57.692;11.958;2023-06-22T00:58:45;101327.00;;;24.95;100.00
12991;BME280;6560;57.692;11.958;2023-06-22T01:01:12;101334.47;;;24.73;100.00
12991;BME280;6560;57.692;11.958;2023-06-22T01:03:40;101339.00;;;24.75;100.00
12991;BME280;6560;57.692;11.958;2023-06-22T01:06:15;101331.50;;;24.32;100.00
12991;BME280;6560;57.692;11.958;2023-06-22T01:08:51;101341.03;;;24.51;100.00
12991;BME280;6560;57.692;11.958;2023-06-22T01:11:32;101334.63;;;24.79;100.00
12991;BME280;6560;57.692;11.958;2023-06-22T01:14:14;101320.25;;;24.47;100.00
12991;BME280;6560;57.692;11.958;2023-06-22T01:16:44;101330.09;;;24.78;100.00
12991;BME280;6560;57.692;11.958;2023-06-22T01:19:29;101344.66;;;24.51;100.00
12991;BME280;6560;57.692;11.958;2023-06-22T01:22:03;101340.00;;;24.79;100.00
12991;BME280;6560;57.692;11.958;2023-06-22T01:27:47;101331.78;;;24.41;100.00
12991;BME280;6560;57.692;11.958;2023-06-22T01:30:17;101336.41;;;25.47;100.00
12991;BME280;6560;57.692;11.958;2023-06-22T01:32:44;101337.81;;;25.66;100.00
12991;BME280;6560;57.692;11.958;2023-06-22T01:35:11;101345.38;;;24.77;100.00
12991;BME280;6560;57.692;11.958;2023-06-22T01:37:38;101307.75;;;24.50;100.00
12991;BME280;6560;57.692;11.958;2023-06-22T01:40:09;101350.47;;;24.67;100.00
12991;BME280;6560;57.692;11.958;2023-06-22T01:42:36;101354.47;;;24.81;100.00
12991;BME280;6560;57.692;11.958;2023-06-22T01:45:03;101355.34;;;24.80;100.00
12991;BME280;6560;57.692;11.958;2023-06-22T01:47:29;101353.41;;;25.07;100.00
12991;BME280;6560;57.692;11.958;2023-06-22T01:49:55;101321.25;;;25.16;100.00
12991;BME280;6560;57.692;11.958;2023-06-22T01:52:21;101339.16;;;24.80;100.00
12991;BME280;6560;57.692;11.958;2023-06-22T01:54:48;101356.31;;;24.83;100.00
12991;BME280;6560;57.692;11.958;2023-06-22T01:57:14;101363.66;;;24.87;100.00
12991;BME280;6560;57.692;11.958;2023-06-22T02:00:02;101365.31;;;24.21;100.00
12991;BME280;6560;57.692;11.958;2023-06-22T02:02:39;101348.44;;;25.24;100.00
12991;BME280;6560;57.692;11.958;2023-06-22T02:05:07;101358.16;;;24.84;100.00
12991;BME280;6560;57.692;11.958;2023-06-22T02:07:41;101359.47;;;24.98;100.00
12991;BME280;6560;57.692;11.958;2023-06-22T02:10:09;101351.34;;;24.66;100.00
12991;BME280;6560;57.692;11.958;2023-06-22T02:12:38;101331.88;;;24.77;100.00
12991;BME280;6560;57.692;11.958;2023-06-22T02:15:04;101366.00;;;25.08;100.00
12991;BME280;6560;57.692;11.958;2023-06-22T02:17:33;101338.09;;;24.75;100.00
12991;BME280;6560;57.692;11.958;2023-06-22T02:20:02;101325.88;;;24.56;100.00
12991;BME280;6560;57.692;11.958;2023-06-22T02:22:30;101360.34;;;24.66;100.00
12991;BME280;6560;57.692;11.958;2023-06-22T02:24:56;101366.44;;;24.90;100.00
12991;BME280;6560;57.692;11.958;2023-06-22T02:27:21;101371.72;;;24.54;100.00
12991;BME280;6560;57.692;11.958;2023-06-22T02:29:47;101376.06;;;24.81;100.00
12991;BME280;6560;57.692;11.958;2023-06-22T02:32:13;101359.78;;;25.11;100.00
12991;BME280;6560;57.692;11.958;2023-06-22T02:34:38;101368.16;;;24.26;100.00
12991;BME280;6560;57.692;11.958;2023-06-22T02:37:04;101351.59;;;24.13;100.00
12991;BME280;6560;57.692;11.958;2023-06-22T02:39:30;101368.09;;;24.54;100.00
12991;BME280;6560;57.692;11.958;2023-06-22T02:41:57;101376.31;;;24.58;100.00
12991;BME280;6560;57.692;11.958;2023-06-22T02:44:24;101377.09;;;24.25;100.00
12991;BME280;6560;57.692;11.958;2023-06-22T02:46:49;101359.25;;;24.59;100.00
12991;BME280;6560;57.692;11.958;2023-06-22T02:49:15;101380.63;;;25.16;100.00
12991;BME280;6560;57.692;11.958;2023-06-22T02:51:45;101361.91;;;24.58;100.00
12991;BME280;6560;57.692;11.958;2023-06-22T02:54:16;101369.63;;;25.43;100.00
12991;BME280;6560;57.692;11.958;2023-06-22T02:56:42;101375.78;;;25.37;100.00
12991;BME280;6560;57.692;11.958;2023-06-22T02:59:11;101383.44;;;25.21;100.00
12991;BME280;6560;57.692;11.958;2023-06-22T03:01:37;101384.53;;;24.94;100.00
12991;BME280;6560;57.692;11.958;2023-06-22T03:04:09;101392.94;;;24.75;100.00
12991;BME280;6560;57.692;11.958;2023-06-22T03:06:35;101380.13;;;24.67;100.00
12991;BME280;6560;57.692;11.958;2023-06-22T03:09:03;101388.00;;;24.28;100.00
12991;BME280;6560;57.692;11.958;2023-06-22T03:11:34;101388.53;;;24.77;100.00
12991;BME280;6560;57.692;11.958;2023-06-22T03:14:02;101387.53;;;24.74;100.00
12991;BME280;6560;57.692;11.958;2023-06-22T03:16:28;101384.41;;;24.90;100.00
12991;BME280;6560;57.692;11.958;2023-06-22T03:18:54;101393.69;;;24.99;100.00
12991;BME280;6560;57.692;11.958;2023-06-22T03:21:22;101383.03;;;25.74;100.00
12991;BME280;6560;57.692;11.958;2023-06-22T03:23:49;101370.28;;;24.69;100.00
12991;BME280;6560;57.692;11.958;2023-06-22T03:26:18;101340.78;;;24.75;100.00
12991;BME280;6560;57.692;11.958;2023-06-22T03:28:44;101355.56;;;24.89;100.00
12991;BME280;6560;57.692;11.958;2023-06-22T03:31:09;101406.22;;;24.97;100.00
12991;BME280;6560;57.692;11.958;2023-06-22T03:33:36;101402.22;;;24.85;100.00
12991;BME280;6560;57.692;11.958;2023-06-22T03:36:02;101400.00;;;25.01;100.00
12991;BME280;6560;57.692;11.958;2023-06-22T03:38:27;101400.22;;;25.09;100.00
12991;BME280;6560;57.692;11.958;2023-06-22T03:40:53;101389.81;;;24.90;100.00
12991;BME280;6560;57.692;11.958;2023-06-22T03:43:18;101412.16;;;24.86;100.00
12991;BME280;6560;57.692;11.958;2023-06-22T03:45:44;101401.09;;;24.77;100.00
12991;BME280;6560;57.692;11.958;2023-06-22T03:48:14;101395.50;;;25.00;100.00
12991;BME280;6560;57.692;11.958;2023-06-22T03:50:39;101423.00;;;24.89;100.00
12991;BME280;6560;57.692;11.958;2023-06-22T03:53:05;101386.91;;;24.84;100.00
12991;BME280;6560;57.692;11.958;2023-06-22T03:55:30;101415.75;;;25.18;100.00
12991;BME280;6560;57.692;11.958;2023-06-22T03:57:56;101384.91;;;24.77;100.00
12991;BME280;6560;57.692;11.958;2023-06-22T04:00:26;101383.50;;;24.89;100.00
12991;BME280;6560;57.692;11.958;2023-06-22T04:02:52;101418.13;;;25.38;100.00
12991;BME280;6560;57.692;11.958;2023-06-22T04:05:17;101425.19;;;25.35;100.00
12991;BME280;6560;57.692;11.958;2023-06-22T04:07:44;101428.06;;;25.41;100.00
12991;BME280;6560;57.692;11.958;2023-06-22T04:10:10;101425.63;;;25.17;100.00
12991;BME280;6560;57.692;11.958;2023-06-22T04:12:36;101429.41;;;25.24;100.00
12991;BME280;6560;57.692;11.958;2023-06-22T04:15:02;101424.47;;;25.08;100.00
12991;BME280;6560;57.692;11.958;2023-06-22T04:17:27;101416.34;;;25.06;100.00
12991;BME280;6560;57.692;11.958;2023-06-22T04:19:53;101432.53;;;25.39;100.00
12991;BME280;6560;57.692;11.958;2023-06-22T04:22:18;101425.06;;;25.63;100.00
12991;BME280;6560;57.692;11.958;2023-06-22T04:24:44;101425.03;;;25.29;100.00
12991;BME280;6560;57.692;11.958;2023-06-22T04:27:10;101392.78;;;25.33;100.00
12991;BME280;6560;57.692;11.958;2023-06-22T04:29:37;101426.25;;;25.40;100.00
12991;BME280;6560;57.692;11.958;2023-06-22T04:32:04;101432.78;;;25.50;100.00
12991;BME280;6560;57.692;11.958;2023-06-22T04:34:31;101424.59;;;25.79;100.00
12991;BME280;6560;57.692;11.958;2023-06-22T04:36:57;101415.16;;;25.62;100.00
12991;BME280;6560;57.692;11.958;2023-06-22T04:39:23;101433.38;;;25.71;100.00
12991;BME280;6560;57.692;11.958;2023-06-22T04:41:49;101398.97;;;24.96;100.00
12991;BME280;6560;57.692;11.958;2023-06-22T04:44:19;101420.84;;;25.73;100.00
12991;BME280;6560;57.692;11.958;2023-06-22T04:46:51;101428.84;;;25.70;100.00
12991;BME280;6560;57.692;11.958;2023-06-22T04:49:20;101443.44;;;25.44;100.00
12991;BME280;6560;57.692;11.958;2023-06-22T04:51:47;101436.97;;;25.37;100.00
12991;BME280;6560;57.692;11.958;2023-06-22T04:54:12;101422.97;;;25.52;100.00
12991;BME280;6560;57.692;11.958;2023-06-22T04:56:39;101435.59;;;25.89;100.00
12991;BME280;6560;57.692;11.958;2023-06-22T04:59:07;101401.06;;;25.75;100.00
12991;BME280;6560;57.692;11.958;2023-06-22T05:01:33;101404.13;;;26.72;100.00
12991;BME280;6560;57.692;11.958;2023-06-22T05:04:00;101409.00;;;25.35;100.00
12991;BME280;6560;57.692;11.958;2023-06-22T05:06:27;101437.56;;;26.33;100.00
12991;BME280;6560;57.692;11.958;2023-06-22T05:08:57;101423.56;;;25.40;100.00
12991;BME280;6560;57.692;11.958;2023-06-22T05:11:27;101438.28;;;25.53;100.00
12991;BME280;6560;57.692;11.958;2023-06-22T05:13:53;101417.78;;;25.61;100.00
12991;BME280;6560;57.692;11.958;2023-06-22T05:16:20;101431.47;;;25.67;100.00
12991;BME280;6560;57.692;11.958;2023-06-22T05:18:53;101441.19;;;26.34;100.00
12991;BME280;6560;57.692;11.958;2023-06-22T05:21:25;101424.44;;;26.11;100.00
12991;BME280;6560;57.692;11.958;2023-06-22T05:23:52;101425.13;;;26.83;100.00
12991;BME280;6560;57.692;11.958;2023-06-22T05:26:19;101427.28;;;27.48;100.00
12991;BME280;6560;57.692;11.958;2023-06-22T05:28:45;101440.66;;;26.90;100.00
12991;BME280;6560;57.692;11.958;2023-06-22T05:31:15;101421.50;;;27.28;100.00
12991;BME280;6560;57.692;11.958;2023-06-22T05:33:43;101403.13;;;27.60;100.00
12991;BME280;6560;57.692;11.958;2023-06-22T05:36:08;101433.84;;;27.11;100.00
12991;BME280;6560;57.692;11.958;2023-06-22T05:38:35;101444.50;;;27.05;100.00
12991;BME280;6560;57.692;11.958;2023-06-22T05:41:01;101411.31;;;26.70;100.00
12991;BME280;6560;57.692;11.958;2023-06-22T05:43:28;101445.72;;;26.35;100.00
12991;BME280;6560;57.692;11.958;2023-06-22T05:45:54;101448.50;;;26.38;100.00
12991;BME280;6560;57.692;11.958;2023-06-22T05:48:19;101435.75;;;26.74;100.00
12991;BME280;6560;57.692;11.958;2023-06-22T05:50:45;101426.06;;;26.42;100.00
12991;BME280;6560;57.692;11.958;2023-06-22T05:53:11;101434.53;;;27.01;100.00
12991;BME280;6560;57.692;11.958;2023-06-22T05:55:36;101441.53;;;26.89;100.00
12991;BME280;6560;57.692;11.958;2023-06-22T05:58:02;101424.94;;;26.74;100.00
12991;BME280;6560;57.692;11.958;2023-06-22T06:00:30;101450.50;;;26.88;100.00
12991;BME280;6560;57.692;11.958;2023-06-22T06:02:56;101438.00;;;26.53;100.00
12991;BME280;6560;57.692;11.958;2023-06-22T06:05:22;101367.81;;;26.17;100.00
12991;BME280;6560;57.692;11.958;2023-06-22T06:07:49;101452.94;;;26.76;100.00
12991;BME280;6560;57.692;11.958;2023-06-22T06:10:14;101406.88;;;27.68;100.00
12991;BME280;6560;57.692;11.958;2023-06-22T06:12:40;101443.97;;;26.79;100.00
12991;BME280;6560;57.692;11.958;2023-06-22T06:15:07;101442.94;;;27.62;100.00
12991;BME280;6560;57.692;11.958;2023-06-22T06:17:33;101437.06;;;27.92;100.00
12991;BME280;6560;57.692;11.958;2023-06-22T06:19:59;101410.53;;;27.71;100.00
12991;BME280;6560;57.692;11.958;2023-06-22T06:22:25;101393.84;;;28.03;100.00
12991;BME280;6560;57.692;11.958;2023-06-22T06:24:50;101424.09;;;27.71;100.00
12991;BME280;6560;57.692;11.958;2023-06-22T06:27:16;101440.66;;;30.27;100.00
12991;BME280;6560;57.692;11.958;2023-06-22T06:29:43;101429.88;;;30.48;100.00
12991;BME280;6560;57.692;11.958;2023-06-22T06:32:11;101442.66;;;29.37;100.00
12991;BME280;6560;57.692;11.958;2023-06-22T06:34:37;101432.88;;;29.57;100.00
12991;BME280;6560;57.692;11.958;2023-06-22T06:37:03;101448.97;;;30.53;100.00
12991;BME280;6560;57.692;11.958;2023-06-22T06:39:30;101449.13;;;29.54;100.00
12991;BME280;6560;57.692;11.958;2023-06-22T06:41:58;101458.19;;;30.77;100.00
12991;BME280;6560;57.692;11.958;2023-06-22T06:44:24;101423.44;;;30.28;100.00
12991;BME280;6560;57.692;11.958;2023-06-22T06:46:49;101437.50;;;31.43;100.00
12991;BME280;6560;57.692;11.958;2023-06-22T06:49:15;101436.16;;;30.33;100.00
12991;BME280;6560;57.692;11.958;2023-06-22T06:52:00;101429.38;;;31.77;100.00
12991;BME280;6560;57.692;11.958;2023-06-22T06:54:26;101460.16;;;32.59;100.00
12991;BME280;6560;57.692;11.958;2023-06-22T06:56:52;101450.78;;;33.15;92.09
12991;BME280;6560;57.692;11.958;2023-06-22T06:59:18;101462.03;;;32.42;94.47
12991;BME280;6560;57.692;11.958;2023-06-22T07:01:45;101437.53;;;31.72;100.00
12991;BME280;6560;57.692;11.958;2023-06-22T07:04:10;101425.72;;;31.75;100.00
12991;BME280;6560;57.692;11.958;2023-06-22T07:06:36;101454.75;;;32.38;91.54
12991;BME280;6560;57.692;11.958;2023-06-22T07:09:03;101433.53;;;33.04;92.43
12991;BME280;6560;57.692;11.958;2023-06-22T07:11:29;101459.94;;;33.09;88.97
12991;BME280;6560;57.692;11.958;2023-06-22T07:13:54;101457.28;;;32.96;88.68
12991;BME280;6560;57.692;11.958;2023-06-22T07:16:20;101458.44;;;33.94;80.78
12991;BME280;6560;57.692;11.958;2023-06-22T07:18:46;101439.63;;;33.53;80.66
12991;BME280;6560;57.692;11.958;2023-06-22T07:21:13;101459.69;;;33.52;86.00
12991;BME280;6560;57.692;11.958;2023-06-22T07:23:38;101450.44;;;33.73;76.92
12991;BME280;6560;57.692;11.958;2023-06-22T07:26:05;101450.16;;;34.03;78.61
12991;BME280;6560;57.692;11.958;2023-06-22T07:28:33;101444.50;;;34.26;71.96
12991;BME280;6560;57.692;11.958;2023-06-22T07:31:02;101413.66;;;34.04;71.96
12991;BME280;6560;57.692;11.958;2023-06-22T07:33:29;101431.66;;;35.04;68.53
12991;BME280;6560;57.692;11.958;2023-06-22T07:35:56;101453.28;;;35.84;67.97
12991;BME280;6560;57.692;11.958;2023-06-22T07:38:21;101428.38;;;35.96;64.47
12991;BME280;6560;57.692;11.958;2023-06-22T07:40:48;101452.38;;;35.25;63.87
12991;BME280;6560;57.692;11.958;2023-06-22T07:43:13;101438.16;;;34.15;69.39
12991;BME280;6560;57.692;11.958;2023-06-22T07:45:39;101466.22;;;33.33;71.31
12991;BME280;6560;57.692;11.958;2023-06-22T07:48:06;101460.13;;;34.12;69.71
12991;BME280;6560;57.692;11.958;2023-06-22T07:50:32;101461.75;;;35.07;68.63
12991;BME280;6560;57.692;11.958;2023-06-22T07:52:58;101456.47;;;35.56;63.55
12991;BME280;6560;57.692;11.958;2023-06-22T07:55:24;101440.72;;;35.71;64.24
12991;BME280;6560;57.692;11.958;2023-06-22T07:57:51;101470.97;;;35.00;63.79
12991;BME280;6560;57.692;11.958;2023-06-22T08:00:17;101466.09;;;34.52;67.25
12991;BME280;6560;57.692;11.958;2023-06-22T08:02:45;101445.59;;;34.05;66.39
12991;BME280;6560;57.692;11.958;2023-06-22T08:05:11;101454.31;;;34.45;68.16
12991;BME280;6560;57.692;11.958;2023-06-22T08:07:37;101435.66;;;34.77;65.43
12991;BME280;6560;57.692;11.958;2023-06-22T08:10:05;101448.44;;;34.78;63.10
12991;BME280;6560;57.692;11.958;2023-06-22T08:12:32;101461.16;;;35.50;65.83
12991;BME280;6560;57.692;11.958;2023-06-22T08:14:57;101467.47;;;34.89;64.22
12991;BME280;6560;57.692;11.958;2023-06-22T08:17:24;101471.41;;;34.65;63.69
12991;BME280;6560;57.692;11.958;2023-06-22T08:19:51;101470.44;;;34.69;64.62
12991;BME280;6560;57.692;11.958;2023-06-22T08:22:17;101469.72;;;35.26;64.18
12991;BME280;6560;57.692;11.958;2023-06-22T08:24:43;101473.16;;;34.72;63.35
12991;BME280;6560;57.692;11.958;2023-06-22T08:27:10;101455.56;;;36.10;62.38
12991;BME280;6560;57.692;11.958;2023-06-22T08:29:37;101471.97;;;36.62;57.22
12991;BME280;6560;57.692;11.958;2023-06-22T08:32:03;101473.59;;;36.72;55.71
12991;BME280;6560;57.692;11.958;2023-06-22T08:34:28;101459.25;;;36.07;55.00
12991;BME280;6560;57.692;11.958;2023-06-22T08:36:54;101474.66;;;36.17;57.90
12991;BME280;6560;57.692;11.958;2023-06-22T08:39:19;101455.91;;;36.41;54.57
12991;BME280;6560;57.692;11.958;2023-06-22T08:41:46;101464.22;;;35.27;55.51
12991;BME280;6560;57.692;11.958;2023-06-22T08:44:12;101478.44;;;34.91;56.88
12991;BME280;6560;57.692;11.958;2023-06-22T08:46:37;101489.53;;;35.47;57.65
12991;BME280;6560;57.692;11.958;2023-06-22T08:49:05;101487.88;;;35.94;55.46
12991;BME280;6560;57.692;11.958;2023-06-22T08:51:31;101487.50;;;36.17;54.33
12991;BME280;6560;57.692;11.958;2023-06-22T08:53:56;101490.25;;;36.17;56.99
12991;BME280;6560;57.692;11.958;2023-06-22T08:56:22;101487.38;;;35.68;57.56
12991;BME280;6560;57.692;11.958;2023-06-22T08:58:48;101484.44;;;35.22;60.18
12991;BME280;6560;57.692;11.958;2023-06-22T09:01:14;101475.59;;;34.97;60.03
12991;BME280;6560;57.692;11.958;2023-06-22T09:03:42;101488.94;;;34.51;60.65
12991;BME280;6560;57.692;11.958;2023-06-22T09:06:07;101499.69;;;34.67;61.01
12991;BME280;6560;57.692;11.958;2023-06-22T09:08:35;101497.22;;;35.19;61.38
12991;BME280;6560;57.692;11.958;2023-06-22T09:11:01;101482.88;;;35.64;58.19
12991;BME280;6560;57.692;11.958;2023-06-22T09:13:29;101470.41;;;34.72;61.60
12991;BME280;6560;57.692;11.958;2023-06-22T09:15:55;101493.22;;;33.86;68.04
12991;BME280;6560;57.692;11.958;2023-06-22T09:18:21;101472.78;;;34.23;65.75
12991;BME280;6560;57.692;11.958;2023-06-22T09:20:46;101483.53;;;34.45;64.14
12991;BME280;6560;57.692;11.958;2023-06-22T09:23:12;101490.78;;;34.49;64.76
12991;BME280;6560;57.692;11.958;2023-06-22T09:25:38;101484.31;;;34.56;65.10
12991;BME280;6560;57.692;11.958;2023-06-22T09:28:05;101469.00;;;34.36;63.37
12991;BME280;6560;57.692;11.958;2023-06-22T09:30:32;101483.91;;;34.02;64.07
12991;BME280;6560;57.692;11.958;2023-06-22T09:32:58;101483.56;;;33.26;67.84
12991;BME280;6560;57.692;11.958;2023-06-22T09:35:24;101468.34;;;32.67;68.88
12991;BME280;6560;57.692;11.958;2023-06-22T09:37:49;101474.63;;;32.84;70.37
12991;BME280;6560;57.692;11.958;2023-06-22T09:40:15;101465.63;;;32.52;70.73
12991;BME280;6560;57.692;11.958;2023-06-22T09:42:42;101478.16;;;33.21;68.33
12991;BME280;6560;57.692;11.958;2023-06-22T09:45:08;101472.78;;;32.89;69.71
12991;BME280;6560;57.692;11.958;2023-06-22T09:47:34;101461.91;;;32.77;73.29
12991;BME280;6560;57.692;11.958;2023-06-22T09:50:01;101467.41;;;32.69;71.83
12991;BME280;6560;57.692;11.958;2023-06-22T09:52:28;101477.56;;;31.96;79.00
12991;BME280;6560;57.692;11.958;2023-06-22T09:54:55;101487.47;;;32.52;77.45
12991;BME280;6560;57.692;11.958;2023-06-22T09:57:21;101484.75;;;32.44;76.89
12991;BME280;6560;57.692;11.958;2023-06-22T09:59:46;101482.91;;;32.57;75.58
12991;BME280;6560;57.692;11.958;2023-06-22T10:02:12;101493.81;;;32.64;77.04
12991;BME280;6560;57.692;11.958;2023-06-22T10:04:38;101489.91;;;33.32;76.37
12991;BME280;6560;57.692;11.958;2023-06-22T10:07:04;101486.50;;;32.81;76.49
12991;BME280;6560;57.692;11.958;2023-06-22T10:09:31;101482.53;;;33.42;75.69
12991;BME280;6560;57.692;11.958;2023-06-22T10:12:00;101481.53;;;33.56;72.14
12991;BME280;6560;57.692;11.958;2023-06-22T10:14:26;101478.03;;;33.41;71.84
12991;BME280;6560;57.692;11.958;2023-06-22T10:16:52;101485.22;;;33.49;73.06
12991;BME280;6560;57.692;11.958;2023-06-22T10:19:18;101490.25;;;32.08;79.44
12991;BME280;6560;57.692;11.958;2023-06-22T10:21:44;101492.09;;;31.75;87.83
12991;BME280;6560;57.692;11.958;2023-06-22T10:24:10;101498.41;;;31.54;88.69
12991;BME280;6560;57.692;11.958;2023-06-22T10:26:35;101493.81;;;31.35;89.02
12991;BME280;6560;57.692;11.958;2023-06-22T10:29:04;101473.00;;;31.66;88.42
12991;BME280;6560;57.692;11.958;2023-06-22T10:31:30;101488.44;;;31.99;87.33
12991;BME280;6560;57.692;11.958;2023-06-22T10:33:56;101495.63;;;31.27;90.20
12991;BME280;6560;57.692;11.958;2023-06-22T10:36:23;101490.84;;;30.73;97.18
12991;BME280;6560;57.692;11.958;2023-06-22T10:38:49;101486.53;;;31.28;93.13
12991;BME280;6560;57.692;11.958;2023-06-22T10:41:16;101495.50;;;30.97;95.64
12991;BME280;6560;57.692;11.958;2023-06-22T10:43:43;101490.09;;;31.04;94.08
12991;BME280;6560;57.692;11.958;2023-06-22T10:46:09;101475.69;;;31.57;94.28
12991;BME280;6560;57.692;11.958;2023-06-22T10:48:34;101489.38;;;31.87;91.48
12991;BME280;6560;57.692;11.958;2023-06-22T10:51:00;101502.09;;;31.96;88.70
12991;BME280;6560;57.692;11.958;2023-06-22T10:53:26;101507.25;;;30.93;92.52
12991;BME280;6560;57.692;11.958;2023-06-22T10:55:52;101463.72;;;31.02;98.07
12991;BME280;6560;57.692;11.958;2023-06-22T10:58:18;101467.03;;;30.37;100.00
12991;BME280;6560;57.692;11.958;2023-06-22T11:00:45;101501.72;;;30.68;100.00
12991;BME280;6560;57.692;11.958;2023-06-22T11:03:10;101495.56;;;31.12;100.00
12991;BME280;6560;57.692;11.958;2023-06-22T11:05:38;101482.88;;;31.18;96.83
12991;BME280;6560;57.692;11.958;2023-06-22T11:08:04;101492.94;;;32.52;88.01
12991;BME280;6560;57.692;11.958;2023-06-22T11:10:29;101494.84;;;32.21;92.73
12991;BME280;6560;57.692;11.958;2023-06-22T11:12:56;101488.44;;;32.32;91.59
12991;BME280;6560;57.692;11.958;2023-06-22T11:15:23;101477.53;;;32.17;94.47
12991;BME280;6560;57.692;11.958;2023-06-22T11:17:49;101476.66;;;32.14;93.37
12991;BME280;6560;57.692;11.958;2023-06-22T11:20:16;101463.00;;;31.73;93.95
12991;BME280;6560;57.692;11.958;2023-06-22T11:22:41;101481.94;;;31.09;96.73
12991;BME280;6560;57.692;11.958;2023-06-22T11:25:08;101489.22;;;31.13;97.10
12991;BME280;6560;57.692;11.958;2023-06-22T11:27:35;101499.38;;;32.02;95.03
12991;BME280;6560;57.692;11.958;2023-06-22T11:30:01;101452.72;;;32.96;86.58
12991;BME280;6560;57.692;11.958;2023-06-22T11:32:26;101485.72;;;32.17;89.02
12991;BME280;6560;57.692;11.958;2023-06-22T11:34:52;101490.19;;;31.30;92.21
12991;BME280;6560;57.692;11.958;2023-06-22T11:37:17;101496.94;;;30.35;100.00
12991;BME280;6560;57.692;11.958;2023-06-22T11:39:43;101480.19;;;31.27;98.61
12991;BME280;6560;57.692;11.958;2023-06-22T11:42:09;101491.13;;;31.53;95.76
12991;BME280;6560;57.692;11.958;2023-06-22T11:44:35;101489.25;;;31.17;99.01
12991;BME280;6560;57.692;11.958;2023-06-22T11:47:01;101489.25;;;31.23;96.29
12991;BME280;6560;57.692;11.958;2023-06-22T11:49:29;101486.56;;;31.37;95.76
12991;BME280;6560;57.692;11.958;2023-06-22T11:51:54;101489.28;;;31.40;94.71
12991;BME280;6560;57.692;11.958;2023-06-22T11:54:20;101490.19;;;31.36;92.50
12991;BME280;6560;57.692;11.958;2023-06-22T11:56:45;101481.84;;;30.84;95.02
12991;BME280;6560;57.692;11.958;2023-06-22T11:59:10;101488.25;;;31.03;93.42
12991;BME280;6560;57.692;11.958;2023-06-22T12:01:36;101478.16;;;30.81;96.48
12991;BME280;6560;57.692;11.958;2023-06-22T12:04:02;101500.84;;;30.75;99.33
12991;BME280;6560;57.692;11.958;2023-06-22T12:06:31;101482.41;;;30.29;100.00
12991;BME280;6560;57.692;11.958;2023-06-22T12:08:58;101498.31;;;31.10;98.26
12991;BME280;6560;57.692;11.958;2023-06-22T12:11:23;101487.34;;;31.04;98.98
12991;BME280;6560;57.692;11.958;2023-06-22T12:13:50;101511.75;;;30.81;100.00
12991;BME280;6560;57.692;11.958;2023-06-22T12:16:17;101497.00;;;30.43;100.00
12991;BME280;6560;57.692;11.958;2023-06-22T12:18:42;101489.06;;;30.81;100.00
12991;BME280;6560;57.692;11.958;2023-06-22T12:21:09;101507.13;;;30.62;100.00
12991;BME280;6560;57.692;11.958;2023-06-22T12:23:35;101502.69;;;30.82;100.00
12991;BME280;6560;57.692;11.958;2023-06-22T12:26:01;101485.22;;;30.44;100.00
12991;BME280;6560;57.692;11.958;2023-06-22T12:28:26;101481.38;;;30.12;100.00
12991;BME280;6560;57.692;11.958;2023-06-22T12:30:52;101490.59;;;30.35;100.00
12991;BME280;6560;57.692;11.958;2023-06-22T12:33:19;101484.72;;;31.33;100.00
12991;BME280;6560;57.692;11.958;2023-06-22T12:35:45;101480.22;;;31.50;99.19
12991;BME280;6560;57.692;11.958;2023-06-22T12:38:11;101475.44;;;30.85;100.00
12991;BME280;6560;57.692;11.958;2023-06-22T12:40:36;101462.41;;;30.27;100.00
12991;BME280;6560;57.692;11.958;2023-06-22T12:43:05;101434.09;;;29.93;100.00
12991;BME280;6560;57.692;11.958;2023-06-22T12:45:31;101452.06;;;29.80;100.00